Orange Lake, Florida
Current Conditions -  °F | °C
As of 4:50 PM on Monday 20 Oct 2014 (Local Time) from KOCF Reporting Station
Scattered Clouds Scattered Clouds  
Wind Chill: 82°   Ceiling: Unl
Heat Index: 82°   Visibility: 10mi
Dew Point: 59°   Wind: 3mph
Humidity: 45%   Direction: 140°SE
Pressure: 29.96"   Gusts: NA
Location:  29.43°N, 82.22°W
Report Text: KOCF 202050Z 14003KT 10SM SCT040 28/15 A2996
Loading
Personal Weather Stations






























Interactive Weather Map
Tropical Storm Tracking
New forecast layout! Learn more

10-Day Weather Forecast

Advertisements
Track Severe Weather on mobile